Terminal Aerodrome Forecast
Issued by NWS

Home | Current Version | Previous Version | Text Only | Print | Product List | Glossary On
Versions: 1 2 3 4 5 6 7 8 9 10 11 12 13
000
FTUS41 KLWX 242332
TAFMTN
TAF
KMTN 242332Z 2500/2524 17007KT P6SM SCT150
     FM250600 VRB03KT P6SM BKN150
     FM251200 21008KT P6SM SCT200
     FM251500 19013G22KT P6SM SCT200
      AMD NOT SKED 2502/2512=

USA.gov is the U.S. government's official web portal to all federal, state and local government web resources and services.